Time;durP1;ratioP1;P1;durP2;ratioP2;P2;SDS_P1;SDS_P2;PMS_P1;PMS_P2;Temp;Humidity;BMP_temperature;BMP_pressure;BME280_temperature;BME280_humidity;BME280_pressure;Samples;Min_cycle;Max_cycle;Signal;HPM_P1;HPM_P2
2021/09/10 00:01:29;;;;;;;12.73;6.77;;;10.10;99.90;;;;;;4355026;28;658654;-68
2021/09/10 00:04:17;;;;;;;15.50;7.40;;;10.00;99.90;;;;;;4383958;28;657344;-68
2021/09/10 00:07:04;;;;;;;13.23;6.93;;;10.00;99.90;;;;;;4349473;28;658320;-69
2021/09/10 00:09:52;;;;;;;12.40;6.50;;;10.00;99.90;;;;;;4381042;28;657727;-69
2021/09/10 00:12:40;;;;;;;12.17;7.40;;;9.90;99.90;;;;;;4382386;28;657691;-69
2021/09/10 00:15:29;;;;;;;15.60;7.30;;;9.90;99.90;;;;;;4367552;28;656850;-69
2021/09/10 00:18:16;;;;;;;13.20;7.22;;;9.80;99.90;;;;;;4381841;28;657193;-69
2021/09/10 00:21:04;;;;;;;17.93;7.67;;;9.90;99.90;;;;;;4353662;28;656662;-68
2021/09/10 00:23:51;;;;;;;13.52;7.40;;;9.80;99.90;;;;;;4384780;28;657252;-68
2021/09/10 00:26:39;;;;;;;11.80;7.30;;;9.80;99.90;;;;;;4373955;28;656857;-68
2021/09/10 00:29:26;;;;;;;12.47;6.97;;;9.80;99.90;;;;;;4391560;28;656294;-68
2021/09/10 00:32:15;;;;;;;13.43;6.93;;;9.70;99.90;;;;;;4366451;28;657103;-68
2021/09/10 00:35:04;;;;;;;12.37;6.50;;;9.70;99.90;;;;;;4346961;28;656943;-69
2021/09/10 00:37:51;;;;;;;11.07;7.13;;;9.60;99.90;;;;;;4386466;28;657027;-68
2021/09/10 00:40:39;;;;;;;13.23;7.17;;;9.60;99.90;;;;;;4360091;28;656556;-69
2021/09/10 00:43:26;;;;;;;11.77;6.93;;;9.60;99.90;;;;;;4384742;28;656797;-68
2021/09/10 00:46:13;;;;;;;13.47;7.23;;;9.60;99.90;;;;;;4364441;28;657282;-69
2021/09/10 00:49:02;;;;;;;12.17;7.13;;;9.60;99.90;;;;;;4376319;28;656432;-68
2021/09/10 00:51:50;;;;;;;13.70;7.13;;;9.50;99.90;;;;;;4368983;28;657238;-68
2021/09/10 00:54:37;;;;;;;12.35;7.10;;;9.50;99.90;;;;;;4363095;28;656843;-69
2021/09/10 00:57:25;;;;;;;14.40;7.77;;;9.50;99.90;;;;;;4380339;28;657151;-69
2021/09/10 01:00:13;;;;;;;12.65;7.10;;;9.50;99.90;;;;;;4360283;28;656218;-69
2021/09/10 01:03:01;;;;;;;13.20;7.50;;;9.50;99.90;;;;;;4373584;28;657165;-69
2021/09/10 01:05:49;;;;;;;14.70;7.30;;;9.40;99.90;;;;;;4363312;28;656604;-69
2021/09/10 01:08:37;;;;;;;11.73;6.87;;;9.40;99.90;;;;;;4386542;28;657515;-69
2021/09/10 01:11:25;;;;;;;13.83;7.63;;;9.40;99.90;;;;;;4378499;28;657148;-69
2021/09/10 01:14:12;;;;;;;11.17;6.50;;;9.40;99.90;;;;;;4366401;28;656911;-70
2021/09/10 01:17:00;;;;;;;16.33;6.70;;;9.40;99.90;;;;;;4382996;28;657902;-69
2021/09/10 01:19:47;;;;;;;12.53;6.80;;;9.30;99.90;;;;;;4363042;28;656470;-69
2021/09/10 01:22:36;;;;;;;11.50;6.80;;;9.30;99.90;;;;;;4366233;28;657738;-69
2021/09/10 01:25:26;;;;;;;14.40;7.30;;;9.30;99.90;;;;;;4370742;28;656859;-69
2021/09/10 01:28:15;;;;;;;12.23;7.17;;;9.30;99.90;;;;;;4362297;28;656245;-69
2021/09/10 01:31:02;;;;;;;12.63;7.35;;;9.30;99.90;;;;;;4367199;28;656574;-69
2021/09/10 01:33:50;;;;;;;16.87;7.50;;;9.30;99.90;;;;;;4378448;28;657991;-68
2021/09/10 01:36:38;;;;;;;12.53;6.83;;;9.30;99.90;;;;;;4366511;28;656585;-68
2021/09/10 01:39:25;;;;;;;14.90;6.80;;;9.30;99.90;;;;;;4386052;28;657139;-69
2021/09/10 01:42:14;;;;;;;16.43;7.37;;;9.30;99.90;;;;;;4362838;28;656718;-69
2021/09/10 01:45:02;;;;;;;14.50;7.27;;;9.20;99.90;;;;;;4373498;28;656517;-69
2021/09/10 01:47:50;;;;;;;12.80;6.97;;;9.20;99.90;;;;;;4380949;28;657607;-69
2021/09/10 01:50:37;;;;;;;12.57;7.00;;;9.20;99.90;;;;;;4362365;28;656366;-69
2021/09/10 01:53:32;;;;;;;16.17;7.40;;;9.10;99.90;;;;;;4381183;28;657877;-68
2021/09/10 01:56:19;;;;;;;15.07;7.93;;;9.10;99.90;;;;;;4336118;28;657316;-68
2021/09/10 01:59:08;;;;;;;14.37;7.20;;;9.10;99.90;;;;;;4386626;28;656189;-68
2021/09/10 02:01:56;;;;;;;15.77;7.50;;;9.10;99.90;;;;;;4361812;28;657355;-68
2021/09/10 02:04:43;;;;;;;16.20;6.70;;;9.10;99.90;;;;;;4364416;28;657038;-69
2021/09/10 02:07:30;;;;;;;14.23;6.53;;;9.10;99.90;;;;;;4378508;28;657481;-69
2021/09/10 02:10:20;;;;;;;13.43;6.97;;;9.10;99.90;;;;;;4371142;28;656606;-69
2021/09/10 02:13:07;;;;;;;12.67;6.63;;;9.10;99.90;;;;;;4346358;28;656697;-69
2021/09/10 02:15:56;;;;;;;11.57;6.53;;;9.10;99.90;;;;;;4389113;28;658269;-69
2021/09/10 02:18:44;;;;;;;14.10;6.80;;;9.10;99.90;;;;;;4354954;28;656897;-69
2021/09/10 02:21:31;;;;;;;17.90;7.07;;;9.10;99.90;;;;;;4395885;28;656651;-69
2021/09/10 02:24:19;;;;;;;13.60;7.33;;;9.00;99.90;;;;;;4373481;28;656803;-69
2021/09/10 02:27:07;;;;;;;13.47;6.80;;;9.00;99.90;;;;;;4392218;28;656613;-68
2021/09/10 02:29:54;;;;;;;18.23;7.00;;;9.00;99.90;;;;;;4351549;28;657729;-69
2021/09/10 02:32:43;;;;;;;15.60;7.23;;;9.00;99.90;;;;;;4383988;28;656514;-69
2021/09/10 02:35:30;;;;;;;13.73;6.93;;;9.00;99.90;;;;;;4365081;28;657844;-68
2021/09/10 02:38:18;;;;;;;14.10;6.97;;;9.00;99.90;;;;;;4359696;28;656703;-69
2021/09/10 02:41:05;;;;;;;14.60;6.70;;;9.00;99.90;;;;;;4374250;28;657372;-68
2021/09/10 02:43:53;;;;;;;12.03;6.63;;;9.00;99.90;;;;;;4359181;28;656321;-69
2021/09/10 02:46:40;;;;;;;12.67;7.00;;;8.90;99.90;;;;;;4374057;28;657847;-69
2021/09/10 02:49:29;;;;;;;13.83;6.53;;;8.90;99.90;;;;;;4366896;28;656727;-69
2021/09/10 02:52:17;;;;;;;11.93;6.30;;;8.90;99.90;;;;;;4373060;28;656730;-69
2021/09/10 02:55:07;;;;;;;14.47;6.37;;;8.90;99.90;;;;;;4388296;28;657486;-69
2021/09/10 02:57:54;;;;;;;13.90;6.73;;;8.90;99.90;;;;;;4375080;28;657661;-69
2021/09/10 03:00:42;;;;;;;12.90;6.03;;;8.90;99.90;;;;;;4396757;28;656378;-69
2021/09/10 03:03:30;;;;;;;11.10;6.23;;;8.90;99.90;;;;;;4383932;28;657631;-69
2021/09/10 03:06:19;;;;;;;10.03;6.30;;;8.90;99.90;;;;;;4367616;28;656416;-69
2021/09/10 03:09:07;;;;;;;14.27;6.33;;;8.90;99.90;;;;;;4372252;28;655982;-68
2021/09/10 03:11:54;;;;;;;10.53;5.70;;;8.80;99.90;;;;;;4357467;28;658447;-69
2021/09/10 03:14:42;;;;;;;8.73;5.87;;;8.80;99.90;;;;;;4373217;28;657040;-69
2021/09/10 03:17:29;;;;;;;9.73;5.77;;;8.80;99.90;;;;;;4366352;28;656452;-68
2021/09/10 03:20:17;;;;;;;10.30;5.83;;;8.80;99.90;;;;;;4387601;28;655759;-69
2021/09/10 03:23:06;;;;;;;10.27;6.33;;;8.80;99.90;;;;;;4388497;28;657286;-69
2021/09/10 03:25:54;;;;;;;13.07;5.37;;;8.80;99.90;;;;;;4370153;28;656781;-69
2021/09/10 03:28:41;;;;;;;10.77;5.57;;;8.80;99.90;;;;;;4395382;28;657334;-69
2021/09/10 03:31:29;;;;;;;9.67;5.87;;;8.80;99.90;;;;;;4371556;28;656879;-69
2021/09/10 03:34:16;;;;;;;12.60;5.50;;;8.80;99.90;;;;;;4385836;28;655347;-69
2021/09/10 03:37:05;;;;;;;13.10;5.90;;;8.70;99.90;;;;;;4354125;28;657495;-69
2021/09/10 03:39:54;;;;;;;15.18;5.80;;;8.70;99.90;;;;;;4366834;28;656637;-69
2021/09/10 03:42:41;;;;;;;10.80;5.30;;;8.70;99.90;;;;;;4381124;28;656288;-69
2021/09/10 03:45:29;;;;;;;12.93;5.67;;;8.70;99.90;;;;;;4349383;28;656694;-69
2021/09/10 03:48:17;;;;;;;11.73;5.30;;;8.70;99.90;;;;;;4388677;28;656583;-68
2021/09/10 03:51:04;;;;;;;10.60;6.03;;;8.70;99.90;;;;;;4373468;28;658021;-69
2021/09/10 03:53:53;;;;;;;10.43;5.90;;;8.70;99.90;;;;;;4377523;28;657895;-69
2021/09/10 03:56:44;;;;;;;9.67;5.73;;;8.70;99.90;;;;;;4379208;28;657184;-69
2021/09/10 03:59:31;;;;;;;9.00;5.43;;;8.70;99.90;;;;;;4365020;28;656303;-69
2021/09/10 04:02:31;;;;;;;11.07;6.27;;;8.70;99.90;;;;;;4373216;28;656000;-69
2021/09/10 04:05:19;;;;;;;9.17;5.80;;;8.70;99.90;;;;;;4377332;28;656629;-68
2021/09/10 04:08:06;;;;;;;8.80;5.40;;;8.60;99.90;;;;;;4397911;28;655378;-69
2021/09/10 04:10:54;;;;;;;9.87;5.80;;;8.70;99.90;;;;;;4379169;28;656090;-69
2021/09/10 04:13:43;;;;;;;8.73;5.50;;;8.70;99.90;;;;;;4399547;28;655238;-69
2021/09/10 04:16:32;;;;;;;11.93;6.47;;;8.70;99.90;;;;;;4374602;28;655991;-69
2021/09/10 04:19:20;;;;;;;13.48;5.90;;;8.60;99.90;;;;;;4377404;28;657666;-69
2021/09/10 04:22:07;;;;;;;16.60;5.90;;;8.60;99.90;;;;;;4371424;28;656597;-69
2021/09/10 04:24:55;;;;;;;10.90;5.77;;;8.70;99.90;;;;;;4382558;28;657664;-68
2021/09/10 04:27:42;;;;;;;9.83;5.63;;;8.60;99.90;;;;;;4377376;28;656783;-69
2021/09/10 04:30:31;;;;;;;12.37;5.73;;;8.60;99.90;;;;;;4401179;28;656248;-69
2021/09/10 04:33:21;;;;;;;8.17;5.27;;;8.70;99.90;;;;;;4373762;28;658104;-69
2021/09/10 04:36:08;;;;;;;17.57;5.87;;;8.70;99.90;;;;;;4373193;28;656019;-69
2021/09/10 04:38:56;;;;;;;9.53;5.03;;;8.70;99.90;;;;;;4386228;28;657010;-69
2021/09/10 04:41:43;;;;;;;9.83;5.70;;;8.80;99.90;;;;;;4373219;28;655505;-69
2021/09/10 04:44:31;;;;;;;9.30;5.13;;;8.80;99.90;;;;;;4397345;28;655950;-68
2021/09/10 04:47:20;;;;;;;10.57;5.50;;;8.90;99.90;;;;;;4379569;28;655628;-69
2021/09/10 04:50:08;;;;;;;8.50;5.40;;;9.00;99.90;;;;;;4370105;28;656589;-69
2021/09/10 04:52:56;;;;;;;9.13;5.10;;;9.00;99.90;;;;;;4397233;28;656528;-69
2021/09/10 04:55:43;;;;;;;8.93;5.30;;;9.10;99.90;;;;;;4367917;28;655830;-69
2021/09/10 04:58:31;;;;;;;9.13;5.43;;;9.10;99.90;;;;;;4397239;28;655775;-69
2021/09/10 05:01:18;;;;;;;12.47;5.70;;;9.20;99.90;;;;;;4376994;28;655354;-69
2021/09/10 05:04:07;;;;;;;7.80;5.27;;;9.30;99.90;;;;;;4395465;28;657722;-69
2021/09/10 05:06:55;;;;;;;13.40;5.37;;;9.50;99.90;;;;;;4354883;28;656384;-69
2021/09/10 05:09:42;;;;;;;10.97;5.50;;;9.60;99.90;;;;;;4373701;28;656676;-69
2021/09/10 05:12:30;;;;;;;20.73;5.70;;;9.60;99.90;;;;;;4378621;28;657625;-69
2021/09/10 05:15:17;;;;;;;12.55;5.57;;;9.80;99.90;;;;;;4361284;28;656583;-69
2021/09/10 05:18:05;;;;;;;8.30;5.07;;;9.90;99.90;;;;;;4384539;28;658226;-69
2021/09/10 05:20:54;;;;;;;8.18;5.07;;;10.10;99.90;;;;;;4360156;28;655680;-69
2021/09/10 05:23:41;;;;;;;9.02;5.68;;;10.20;99.90;;;;;;4380022;28;656417;-69
2021/09/10 05:26:29;;;;;;;9.53;5.70;;;10.30;99.90;;;;;;4366128;28;657085;-69
2021/09/10 05:29:16;;;;;;;11.83;6.10;;;10.50;99.90;;;;;;4372037;28;656573;-69
2021/09/10 05:32:05;;;;;;;13.03;6.07;;;10.70;99.90;;;;;;4365739;28;657714;-69
2021/09/10 05:34:52;;;;;;;9.07;5.47;;;10.80;99.90;;;;;;4353061;28;657720;-69
2021/09/10 05:37:42;;;;;;;10.90;5.70;;;10.90;99.90;;;;;;4390589;28;657423;-69
2021/09/10 05:40:29;;;;;;;11.93;6.00;;;11.10;99.90;;;;;;4346027;28;658729;-69
2021/09/10 05:43:17;;;;;;;13.43;5.93;;;11.20;99.90;;;;;;4391300;28;657287;-69
2021/09/10 05:46:05;;;;;;;9.37;6.27;;;11.40;99.90;;;;;;4378872;28;659364;-69
2021/09/10 05:48:52;;;;;;;10.67;6.03;;;11.60;99.90;;;;;;4366569;28;656497;-69
2021/09/10 05:51:40;;;;;;;12.90;6.20;;;11.70;99.90;;;;;;4381195;28;657772;-69
2021/09/10 05:54:29;;;;;;;10.57;5.80;;;11.90;99.90;;;;;;4342963;28;657416;-69
2021/09/10 05:57:17;;;;;;;13.40;5.43;;;12.10;99.90;;;;;;4384211;28;657736;-69
2021/09/10 06:00:05;;;;;;;11.37;5.87;;;12.20;99.90;;;;;;4357667;28;659066;-69
2021/09/10 06:02:53;;;;;;;13.37;6.30;;;12.40;99.90;;;;;;4358028;28;657509;-69
2021/09/10 06:05:41;;;;;;;15.00;6.97;;;12.60;99.90;;;;;;4386276;28;658014;-69
2021/09/10 06:08:28;;;;;;;11.93;6.47;;;12.80;99.90;;;;;;4355300;28;657560;-69
2021/09/10 06:11:17;;;;;;;12.90;6.90;;;13.00;99.90;;;;;;4388197;28;657919;-69
2021/09/10 06:14:05;;;;;;;13.47;7.13;;;13.20;99.90;;;;;;4354800;28;658557;-69
2021/09/10 06:16:52;;;;;;;14.60;6.90;;;13.40;99.90;;;;;;4357117;28;659104;-69
2021/09/10 06:19:40;;;;;;;17.87;6.90;;;13.60;99.90;;;;;;4386060;28;658898;-69
2021/09/10 06:22:28;;;;;;;15.23;6.50;;;13.80;99.90;;;;;;4368790;28;657796;-69
2021/09/10 06:25:15;;;;;;;12.33;6.03;;;14.00;99.90;;;;;;4381099;28;658148;-69
2021/09/10 06:28:05;;;;;;;10.83;5.90;;;14.20;99.90;;;;;;4357101;28;657404;-69
2021/09/10 06:30:52;;;;;;;13.00;5.80;;;14.30;99.90;;;;;;4358921;28;657590;-69
2021/09/10 06:33:40;;;;;;;9.27;5.57;;;14.50;99.90;;;;;;4380784;28;658680;-69
2021/09/10 06:36:27;;;;;;;11.93;5.60;;;14.60;99.90;;;;;;4360957;28;656761;-69
2021/09/10 06:39:15;;;;;;;9.97;5.60;;;14.80;99.90;;;;;;4385605;28;658304;-69
2021/09/10 06:42:03;;;;;;;13.07;5.47;;;15.00;99.90;;;;;;4365546;28;656410;-69
2021/09/10 06:44:54;;;;;;;11.70;6.07;;;15.30;99.90;;;;;;4385303;28;658479;-69
2021/09/10 06:47:41;;;;;;;12.20;6.27;;;15.50;99.90;;;;;;4364800;28;657933;-69
2021/09/10 06:50:29;;;;;;;8.03;4.70;;;15.70;99.90;;;;;;4358944;28;658641;-70
2021/09/10 06:53:17;;;;;;;13.17;5.70;;;15.90;94.30;;;;;;4385555;28;656485;-69
2021/09/10 06:56:05;;;;;;;8.10;5.40;;;16.10;99.90;;;;;;4362794;28;658765;-69
2021/09/10 06:58:52;;;;;;;11.50;4.80;;;16.30;91.50;;;;;;4364856;28;656571;-69
2021/09/10 07:01:41;;;;;;;7.53;4.70;;;16.50;86.10;;;;;;4380528;28;658258;-69
2021/09/10 07:04:30;;;;;;;12.13;4.83;;;16.60;64.30;;;;;;4363597;28;657341;-69
2021/09/10 07:07:18;;;;;;;9.10;4.55;;;16.80;64.10;;;;;;4364450;28;657658;-69
2021/09/10 07:10:06;;;;;;;11.30;4.37;;;17.10;1.00;;;;;;4392551;28;657038;-69
2021/09/10 07:12:54;;;;;;;7.10;4.00;;;17.30;1.00;;;;;;4370747;28;657603;-69
2021/09/10 07:15:41;;;;;;;12.17;4.13;;;17.40;1.00;;;;;;4391352;28;655091;-69
2021/09/10 07:18:31;;;;;;;9.07;4.30;;;17.60;1.00;;;;;;4367505;28;657319;-69
2021/09/10 07:21:18;;;;;;;8.47;3.90;;;17.90;1.00;;;;;;4359757;28;655519;-69
2021/09/10 07:24:07;;;;;;;13.50;4.07;;;18.10;1.00;;;;;;4395279;28;655089;-69
2021/09/10 07:26:55;;;;;;;8.07;3.73;;;18.30;1.00;;;;;;4376616;28;657805;-69
2021/09/10 07:29:42;;;;;;;9.63;4.03;;;18.50;99.90;;;;;;4381581;28;655331;-70
2021/09/10 07:32:30;;;;;;;8.83;4.07;;;18.70;99.90;;;;;;4380591;28;657345;-69
2021/09/10 07:35:19;;;;;;;14.33;3.80;;;18.90;99.90;;;;;;4357622;28;656437;-69
2021/09/10 07:38:07;;;;;;;7.37;3.53;;;19.10;1.00;;;;;;4380334;28;657350;-69
2021/09/10 07:40:54;;;;;;;8.47;3.30;;;19.30;1.00;;;;;;4367439;28;656598;-67
2021/09/10 07:43:42;;;;;;;8.10;3.57;;;19.50;1.00;;;;;;4375017;28;655494;-67
2021/09/10 07:46:29;;;;;;;5.70;3.50;;;19.70;1.00;;;;;;4367766;28;656703;-67
2021/09/10 07:49:17;;;;;;;8.60;3.43;;;20.00;1.00;;;;;;4377180;28;655748;-67
2021/09/10 07:52:07;;;;;;;4.37;2.90;;;20.20;99.90;;;;;;4385732;28;656733;-67
2021/09/10 07:54:54;;;;;;;13.33;3.47;;;20.40;99.90;;;;;;4377591;28;658296;-67
2021/09/10 07:57:42;;;;;;;8.43;2.80;;;20.60;99.90;;;;;;4394461;28;658082;-67
2021/09/10 08:00:29;;;;;;;6.70;3.37;;;20.90;1.00;;;;;;4367408;28;657617;-67
2021/09/10 08:03:18;;;;;;;7.23;3.00;;;21.00;99.90;;;;;;4392059;28;655512;-67
2021/09/10 08:06:05;;;;;;;10.00;2.90;;;21.30;15.40;;;;;;4413633;28;657487;-67
2021/09/10 08:08:54;;;;;;;8.63;3.07;;;21.30;1.00;;;;;;4350830;28;657947;-67
2021/09/10 08:11:42;;;;;;;11.20;3.10;;;21.40;99.90;;;;;;4372806;28;655761;-67
2021/09/10 08:14:30;;;;;;;13.83;3.63;;;21.70;99.90;;;;;;4376334;28;658612;-67
2021/09/10 08:17:18;;;;;;;13.07;3.70;;;21.90;99.90;;;;;;4372148;28;657651;-68
2021/09/10 08:20:07;;;;;;;5.33;3.23;;;22.10;99.90;;;;;;4372610;28;658237;-67
2021/09/10 08:22:54;;;;;;;10.90;3.77;;;22.40;1.00;;;;;;4360348;28;657345;-67
2021/09/10 08:25:44;;;;;;;7.63;3.70;;;22.50;99.90;;;;;;4371193;28;656643;-68
2021/09/10 08:28:32;;;;;;;4.90;3.40;;;22.70;99.90;;;;;;4385567;28;656835;-68
2021/09/10 08:31:19;;;;;;;6.17;3.87;;;22.90;44.50;;;;;;4352824;28;657767;-67
2021/09/10 08:34:08;;;;;;;7.40;3.57;;;23.10;1.00;;;;;;4376229;28;656629;-68
2021/09/10 08:36:55;;;;;;;12.03;4.03;;;23.40;1.00;;;;;;4388462;28;656160;-68
2021/09/10 08:39:43;;;;;;;7.03;3.80;;;23.50;99.90;;;;;;4370040;28;656829;-68
2021/09/10 08:42:32;;;;;;;8.67;4.10;;;23.60;99.90;;;;;;4373918;28;657802;-68
2021/09/10 08:45:20;;;;;;;5.97;3.63;;;23.80;95.70;;;;;;4361220;28;657042;-67
2021/09/10 08:48:07;;;;;;;13.07;3.93;;;24.10;1.00;;;;;;4371087;28;657019;-68
2021/09/10 08:50:55;;;;;;;7.67;4.13;;;24.00;99.90;;;;;;4374351;28;657380;-68
2021/09/10 08:53:43;;;;;;;10.13;4.07;;;24.00;99.90;;;;;;4367122;28;657414;-68
2021/09/10 08:56:30;;;;;;;10.07;4.07;;;24.10;99.90;;;;;;4376969;28;658263;-68
2021/09/10 08:59:20;;;;;;;9.90;4.57;;;24.20;99.90;;;;;;4367598;28;657592;-68
2021/09/10 09:02:08;;;;;;;15.37;4.37;;;24.40;99.90;;;;;;4354113;28;657207;-68
2021/09/10 09:04:57;;;;;;;10.63;3.80;;;24.40;99.90;;;;;;4377801;28;658834;-68
2021/09/10 09:07:45;;;;;;;10.70;3.93;;;24.80;99.90;;;;;;4364313;28;658305;-68
2021/09/10 09:10:51;;;;;;;9.05;3.78;;;25.00;99.90;;;;;;4371377;28;657621;-68
2021/09/10 09:13:39;;;;;;;9.00;3.28;;;25.20;86.60;;;;;;4342311;28;658973;-68
2021/09/10 09:16:30;;;;;;;8.63;3.60;;;25.40;99.90;;;;;;4389240;28;656393;-68
2021/09/10 09:19:19;;;;;;;11.32;4.10;;;25.30;1.00;;;;;;4338758;28;656983;-68
2021/09/10 09:22:07;;;;;;;7.70;3.42;;;25.40;1.00;;;;;;4379653;28;656706;-68
2021/09/10 09:25:06;;;;;;;10.60;3.58;;;25.40;1.00;;;;;;4362415;28;656181;-68
2021/09/10 09:27:54;;;;;;;6.88;2.80;;;25.50;99.90;;;;;;4335882;28;656946;-68
2021/09/10 09:30:43;;;;;;;6.68;2.70;;;25.40;99.90;;;;;;4386609;28;656680;-68
2021/09/10 09:33:33;;;;;;;8.95;3.00;;;25.10;99.90;;;;;;4361135;28;657965;-68
2021/09/10 09:36:21;;;;;;;4.88;2.92;;;25.00;99.90;;;;;;4349877;28;657458;-68
2021/09/10 09:39:10;;;;;;;5.55;2.88;;;25.20;99.90;;;;;;4359500;28;656736;-68
2021/09/10 09:41:57;;;;;;;5.38;2.90;;;25.20;99.90;;;;;;4369661;28;656609;-68
2021/09/10 09:44:45;;;;;;;6.43;3.08;;;25.30;99.90;;;;;;4392287;28;656634;-68
2021/09/10 09:47:33;;;;;;;8.73;3.13;;;25.20;99.90;;;;;;4358756;28;656872;-68
2021/09/10 09:50:22;;;;;;;6.43;3.10;;;24.90;99.90;;;;;;4391986;28;656970;-68
2021/09/10 09:53:12;;;;;;;7.18;3.17;;;25.20;99.90;;;;;;4345701;28;657839;-68
2021/09/10 09:55:59;;;;;;;7.70;3.42;;;25.70;99.90;;;;;;4370854;28;657625;-67
2021/09/10 09:58:48;;;;;;;7.93;3.47;;;25.70;1.00;;;;;;4366095;28;656419;-68
2021/09/10 10:01:35;;;;;;;5.95;3.17;;;25.50;1.00;;;;;;4384201;28;656619;-68
2021/09/10 10:04:23;;;;;;;5.90;3.33;;;25.80;1.00;;;;;;4358334;28;655804;-68
2021/09/10 10:07:13;;;;;;;9.05;3.40;;;26.10;1.00;;;;;;4386218;28;655757;-68
2021/09/10 10:10:00;;;;;;;6.75;3.17;;;26.50;1.00;;;;;;4365137;28;656557;-68
2021/09/10 10:12:50;;;;;;;8.65;3.75;;;26.80;1.00;;;;;;4351547;28;655688;-68
2021/09/10 10:15:43;;;;;;;7.45;3.40;;;27.00;1.00;;;;;;4367925;28;656287;-68
2021/09/10 10:18:39;;;;;;;6.53;2.85;;;27.10;1.00;;;;;;4355924;28;655946;-68
2021/09/10 10:21:52;;;;;;;6.55;2.78;;;27.40;1.00;;;;;;4347562;28;655755;-68
2021/09/10 10:24:46;;;;;;;6.57;3.20;;;27.30;1.00;;;;;;4348174;28;656206;-68
2021/09/10 10:27:41;;;;;;;4.80;3.20;;;27.00;1.00;;;;;;4363421;28;655574;-68
2021/09/10 10:30:49;;;;;;;5.07;2.38;;;27.20;1.00;;;;;;4322528;28;655718;-68
2021/09/10 10:33:36;;;;;;;6.45;2.60;;;27.00;99.90;;;;;;4367021;28;655328;-68
2021/09/10 10:36:31;;;;;;;7.28;3.00;;;26.70;99.90;;;;;;4348123;28;657566;-68
2021/09/10 10:39:26;;;;;;;4.18;2.63;;;26.70;99.90;;;;;;4365761;28;656602;-68
2021/09/10 10:42:15;;;;;;;6.90;2.67;;;26.90;99.90;;;;;;4332144;28;657709;-68
2021/09/10 10:45:03;;;;;;;3.00;1.98;;;27.30;99.90;;;;;;4375687;28;657085;-68
2021/09/10 10:47:50;;;;;;;6.40;2.40;;;27.60;99.90;;;;;;4366005;28;657246;-68
2021/09/10 10:50:38;;;;;;;4.57;2.50;;;27.00;99.90;;;;;;4362953;28;657087;-68
2021/09/10 10:53:26;;;;;;;4.97;2.50;;;26.80;99.90;;;;;;4387765;28;656667;-68
2021/09/10 10:56:41;;;;;;;4.40;2.92;;;27.30;99.90;;;;;;4369484;28;656612;-68
2021/09/10 10:59:38;;;;;;;8.75;2.50;;;27.90;99.90;;;;;;4349248;28;656817;-67
2021/09/10 11:02:38;;;;;;;4.10;2.60;;;27.80;99.90;;;;;;4350228;28;656621;-67
2021/09/10 11:05:26;;;;;;;5.75;2.53;;;27.80;99.90;;;;;;4361257;28;656555;-68
2021/09/10 11:08:17;;;;;;;6.07;2.80;;;27.60;99.90;;;;;;4361920;28;656990;-68
2021/09/10 11:11:05;;;;;;;6.38;2.95;;;27.50;99.90;;;;;;4376622;28;657163;-67
2021/09/10 11:13:53;;;;;;;6.95;2.63;;;28.00;99.90;;;;;;4361940;28;656596;-68
2021/09/10 11:16:42;;;;;;;7.15;2.70;;;28.60;99.90;;;;;;4385008;28;657232;-68
2021/09/10 11:19:29;;;;;;;7.45;2.95;;;28.80;99.90;;;;;;4362256;28;657219;-67
2021/09/10 11:22:17;;;;;;;8.90;2.85;;;28.90;99.90;;;;;;4388148;28;656579;-68
2021/09/10 11:25:08;;;;;;;9.00;2.83;;;29.20;99.90;;;;;;4359626;28;656824;-69
2021/09/10 11:27:56;;;;;;;4.72;2.70;;;29.30;99.90;;;;;;4354962;28;657697;-68
2021/09/10 11:30:44;;;;;;;5.28;2.88;;;29.80;99.90;;;;;;4365693;28;657090;-68
2021/09/10 11:33:42;;;;;;;4.70;2.63;;;29.40;99.90;;;;;;4397280;28;656677;-68
2021/09/10 11:36:29;;;;;;;6.60;2.80;;;28.80;99.90;;;;;;4336184;28;657067;-67
2021/09/10 11:39:18;;;;;;;9.02;2.80;;;28.40;99.90;;;;;;4364626;28;656450;-68
2021/09/10 11:42:05;;;;;;;5.38;2.90;;;28.80;99.90;;;;;;4391146;28;657627;-68
2021/09/10 11:45:02;;;;;;;4.32;3.08;;;28.20;99.90;;;;;;4369047;28;657608;-68
2021/09/10 11:47:50;;;;;;;3.70;2.75;;;28.10;99.90;;;;;;4333736;28;657173;-68
2021/09/10 11:50:53;;;;;;;4.90;2.78;;;28.30;99.90;;;;;;4354155;28;656951;-68
2021/09/10 11:53:53;;;;;;;7.50;3.00;;;28.70;99.90;;;;;;4364191;28;656876;-67
2021/09/10 11:56:41;;;;;;;5.18;2.75;;;28.80;99.90;;;;;;4352823;28;657083;-68
2021/09/10 11:59:29;;;;;;;9.10;2.90;;;29.00;99.90;;;;;;4365448;28;656866;-67
2021/09/10 12:02:18;;;;;;;7.53;2.80;;;29.10;99.90;;;;;;4377010;28;656882;-68
2021/09/10 12:05:07;;;;;;;7.85;2.53;;;29.10;1.00;;;;;;4386554;28;656827;-67
2021/09/10 12:07:56;;;;;;;6.78;2.72;;;29.10;1.00;;;;;;4360886;28;656495;-67
2021/09/10 12:10:43;;;;;;;9.27;2.70;;;29.20;1.00;;;;;;4345118;28;655594;-68
2021/09/10 12:13:33;;;;;;;5.82;2.63;;;29.10;1.00;;;;;;4374142;28;655311;-67
2021/09/10 12:16:21;;;;;;;3.92;2.35;;;29.00;1.00;;;;;;4367205;28;655815;-68
2021/09/10 12:19:11;;;;;;;9.20;2.50;;;28.50;1.00;;;;;;4365857;28;655648;-68
2021/09/10 12:21:58;;;;;;;6.82;2.70;;;28.20;1.00;;;;;;4372057;28;655768;-68
2021/09/10 12:24:47;;;;;;;5.70;2.40;;;28.40;1.00;;;;;;4392426;28;655624;-67
2021/09/10 12:27:35;;;;;;;7.13;2.92;;;28.60;1.00;;;;;;4364682;28;656571;-68
2021/09/10 12:30:23;;;;;;;4.22;2.05;;;29.00;1.00;;;;;;4368141;28;656534;-68
2021/09/10 12:33:12;;;;;;;8.38;2.88;;;29.40;1.00;;;;;;4377249;28;655046;-68
2021/09/10 12:36:00;;;;;;;6.10;2.40;;;29.40;1.00;;;;;;4349655;28;655814;-68
2021/09/10 12:38:48;;;;;;;4.97;2.60;;;29.50;1.00;;;;;;4374666;28;655545;-68
2021/09/10 12:41:37;;;;;;;7.10;2.65;;;29.70;1.00;;;;;;4388380;28;656454;-67
2021/09/10 12:44:25;;;;;;;4.97;2.55;;;29.70;1.00;;;;;;4367895;28;656128;-67
2021/09/10 12:47:13;;;;;;;7.35;2.55;;;29.80;1.00;;;;;;4367595;28;655522;-68
2021/09/10 12:50:00;;;;;;;4.05;2.40;;;30.20;1.00;;;;;;4379611;28;656107;-68
2021/09/10 12:52:48;;;;;;;6.18;2.83;;;30.10;1.00;;;;;;4355148;28;655486;-68
2021/09/10 12:55:35;;;;;;;4.97;2.67;;;30.00;1.00;;;;;;4389940;28;655537;-67
2021/09/10 12:58:25;;;;;;;3.97;2.70;;;30.10;1.00;;;;;;4370339;28;655368;-67
2021/09/10 13:01:12;;;;;;;8.18;2.50;;;30.10;1.00;;;;;;4388538;28;655303;-68
2021/09/10 13:04:00;;;;;;;8.60;3.00;;;30.10;1.00;;;;;;4392049;28;656438;-68
2021/09/10 13:06:48;;;;;;;4.20;2.38;;;29.90;1.00;;;;;;4362677;28;655315;-68
2021/09/10 13:09:35;;;;;;;5.35;3.03;;;30.10;1.00;;;;;;4391097;28;656525;-67
2021/09/10 13:12:24;;;;;;;5.35;2.42;;;29.30;1.00;;;;;;4367229;28;655608;-68
2021/09/10 13:15:13;;;;;;;5.37;2.50;;;29.40;1.00;;;;;;4371662;28;655764;-67
2021/09/10 13:18:01;;;;;;;6.45;2.45;;;29.50;1.00;;;;;;4352951;28;656328;-68
2021/09/10 13:20:48;;;;;;;5.53;2.60;;;29.40;1.00;;;;;;4368219;28;655551;-68
2021/09/10 13:23:36;;;;;;;5.20;2.45;;;29.60;1.00;;;;;;4386146;28;655484;-68
2021/09/10 13:26:24;;;;;;;5.88;2.78;;;29.70;1.00;;;;;;4360472;28;656094;-68
2021/09/10 13:29:11;;;;;;;6.20;2.50;;;29.60;1.00;;;;;;4378128;28;655650;-67
2021/09/10 13:32:00;;;;;;;4.68;2.60;;;29.90;1.00;;;;;;4355052;28;655943;-67
2021/09/10 13:34:48;;;;;;;3.70;2.55;;;30.50;1.00;;;;;;4366447;28;655367;-68
2021/09/10 13:37:35;;;;;;;6.85;2.60;;;31.00;1.70;;;;;;4383133;28;656396;-67
2021/09/10 13:40:23;;;;;;;6.03;2.42;;;30.80;1.00;;;;;;4368049;28;655501;-68
2021/09/10 13:43:11;;;;;;;7.20;2.63;;;30.90;1.00;;;;;;4383266;28;656054;-67
2021/09/10 13:45:59;;;;;;;5.32;2.35;;;30.90;1.00;;;;;;4357064;28;656824;-68
2021/09/10 13:48:48;;;;;;;7.10;2.70;;;30.40;1.00;;;;;;4379963;28;655883;-67
2021/09/10 13:51:36;;;;;;;5.05;2.60;;;30.10;1.00;;;;;;4371569;28;656715;-67
2021/09/10 13:54:23;;;;;;;6.32;2.60;;;30.10;1.00;;;;;;4350110;28;655607;-68
2021/09/10 13:57:11;;;;;;;6.85;2.53;;;30.10;1.00;;;;;;4363575;28;655453;-68
2021/09/10 13:59:58;;;;;;;7.68;2.40;;;29.80;1.00;;;;;;4348720;28;655870;-68
2021/09/10 14:02:46;;;;;;;4.93;2.60;;;29.60;1.00;;;;;;4370899;28;655525;-67
2021/09/10 14:05:35;;;;;;;6.45;2.83;;;29.20;1.00;;;;;;4362056;28;657176;-68
2021/09/10 14:08:23;;;;;;;5.43;2.42;;;29.50;1.00;;;;;;4362190;28;655884;-68
2021/09/10 14:11:10;;;;;;;5.78;2.92;;;30.00;1.00;;;;;;4383210;28;656732;-67
2021/09/10 14:13:58;;;;;;;8.60;2.92;;;29.70;1.00;;;;;;4360271;28;656016;-68
2021/09/10 14:16:45;;;;;;;12.57;2.72;;;29.80;1.00;;;;;;4385610;28;655838;-67
2021/09/10 14:19:33;;;;;;;8.15;2.60;;;29.00;1.00;;;;;;4365921;28;656322;-67
2021/09/10 14:22:22;;;;;;;7.45;2.65;;;29.30;1.00;;;;;;4382356;28;655759;-68
2021/09/10 14:25:11;;;;;;;7.07;2.90;;;29.60;1.00;;;;;;4360111;28;657040;-67
2021/09/10 14:27:58;;;;;;;6.68;2.67;;;30.00;1.00;;;;;;4358030;28;656586;-68